Terminal Aerodrome Forecast
Issued by NWS

Home | Current Version | Previous Version | Text Only | Print | Product List | Glossary On
Versions: 1 2 3 4 5 6 7 8 9 10 11 12 13 14 15 16 17 18 19 20 21 22 23
000
FTUS45 KBOU 281137
TAFAPA
TAF
KAPA 281137Z 2812/2912 35007KT P6SM VCFG SCT012 BKN020 OVC035
     FM281500 34008KT P6SM VCSH BKN015 OVC030
     FM281900 02010KT 5SM -SHRA BKN012 OVC025
      TEMPO 2821/2901 03012KT 3SM -SHRA BR OVC010
     FM290100 03013KT 2SM -RA BR BKN005 OVC010
     FM290400 04012G20KT 1SM -RA BR OVC008
      TEMPO 2904/2908 1/4SM RA FZFG VV004
     FM290800 02011KT 2SM -SN BR BKN004 OVC010=

USA.gov is the U.S. government's official web portal to all federal, state and local government web resources and services.